KILE/ILE METAR and TAF weather

Enter ICAO airport designator
Station Type Date Time Source
KILE METAR 2022/08/13 12:56 UTC NOAA

KILE 131256Z AUTO 02003KT 10SM CLR 26/21 A3005 RMK AO2 SLP161 T02610211


Station Type Date Time Source
KILE Decoded METAR 2022/08/13 12:56 UTC NOAA

Killeen, Skylark Field Airport, TX, United States (KILE) 31-05N 097-41W
Aug 13, 2022 - 08:56 AM EDT / 2022.08.13 1256 UTC
Wind: from the NNE (020 degrees) at 3 MPH (3 KT):0
Visibility: 10 mile(s):0
Sky conditions: clear
Temperature: 79.0 F (26.1 C)
Dew Point: 70.0 F (21.1 C)
Relative Humidity: 73%
Pressure (altimeter): 30.05 in. Hg (1017 hPa)
ob: KILE 131256Z AUTO 02003KT 10SM CLR 26/21 A3005 RMK AO2 SLP161 T02610211
cycle: 13

Station Type Date Time Source
KILE TAF UTC NOAA

Error!

Example: see airport list